Terminal Aerodrome Forecast
Issued by NWS

Home | Current Version | Previous Version | Text Only | Print | Product List | Glossary On
Versions: 1 2 3 4 5 6 7 8 9 10 11 12 13 14 15
000
FTUS41 KILN 202100 AAA
TAFLCK
TAF AMD
KLCK 202104Z 2021/2118 VRB03KT P6SM OVC018
      TEMPO 2021/2024 OVC022
     FM210400 VRB03KT P6SM BKN022
      TEMPO 2114/2118 SCT020=

USA.gov is the U.S. government's official web portal to all federal, state and local government web resources and services.